sensor_id;sensor_type;location;lat;lon;timestamp;P1;durP1;ratioP1;P2;durP2;ratioP2
10465;SDS011;5280;42.600;23.556;2023-03-01T00:02:14;1.30;;;1.30;;
10465;SDS011;5280;42.600;23.556;2023-03-01T00:04:41;2.40;;;1.30;;
10465;SDS011;5280;42.600;23.556;2023-03-01T00:07:09;1.23;;;1.23;;
10465;SDS011;5280;42.600;23.556;2023-03-01T00:09:36;1.40;;;1.40;;
10465;SDS011;5280;42.600;23.556;2023-03-01T00:12:05;1.20;;;1.20;;
10465;SDS011;5280;42.600;23.556;2023-03-01T00:14:32;1.47;;;1.47;;
10465;SDS011;5280;42.600;23.556;2023-03-01T00:16:59;1.30;;;1.30;;
10465;SDS011;5280;42.600;23.556;2023-03-01T00:19:27;1.93;;;1.57;;
10465;SDS011;5280;42.600;23.556;2023-03-01T00:21:54;1.50;;;1.50;;
10465;SDS011;5280;42.600;23.556;2023-03-01T00:24:22;1.50;;;1.50;;
10465;SDS011;5280;42.600;23.556;2023-03-01T00:26:49;1.67;;;1.43;;
10465;SDS011;5280;42.600;23.556;2023-03-01T00:29:20;1.73;;;1.63;;
10465;SDS011;5280;42.600;23.556;2023-03-01T00:31:47;1.40;;;1.40;;
10465;SDS011;5280;42.600;23.556;2023-03-01T00:34:14;2.87;;;1.23;;
10465;SDS011;5280;42.600;23.556;2023-03-01T00:36:41;1.10;;;1.10;;
10465;SDS011;5280;42.600;23.556;2023-03-01T00:39:10;1.40;;;1.40;;
10465;SDS011;5280;42.600;23.556;2023-03-01T00:41:39;1.97;;;1.87;;
10465;SDS011;5280;42.600;23.556;2023-03-01T00:44:06;1.40;;;1.37;;
10465;SDS011;5280;42.600;23.556;2023-03-01T00:46:33;1.50;;;1.40;;
10465;SDS011;5280;42.600;23.556;2023-03-01T00:49:00;1.20;;;1.20;;
10465;SDS011;5280;42.600;23.556;2023-03-01T00:51:30;1.40;;;1.40;;
10465;SDS011;5280;42.600;23.556;2023-03-01T00:54:00;1.37;;;1.33;;
10465;SDS011;5280;42.600;23.556;2023-03-01T00:56:28;1.30;;;1.30;;
10465;SDS011;5280;42.600;23.556;2023-03-01T00:58:57;1.33;;;1.33;;
10465;SDS011;5280;42.600;23.556;2023-03-01T01:01:26;1.30;;;1.30;;
10465;SDS011;5280;42.600;23.556;2023-03-01T01:03:56;0.90;;;0.90;;
10465;SDS011;5280;42.600;23.556;2023-03-01T01:06:25;0.80;;;0.80;;
10465;SDS011;5280;42.600;23.556;2023-03-01T01:08:54;0.90;;;0.90;;
10465;SDS011;5280;42.600;23.556;2023-03-01T01:11:22;0.93;;;0.93;;
10465;SDS011;5280;42.600;23.556;2023-03-01T01:13:50;0.87;;;0.70;;
10465;SDS011;5280;42.600;23.556;2023-03-01T01:16:20;0.80;;;0.80;;
10465;SDS011;5280;42.600;23.556;2023-03-01T01:18:49;0.63;;;0.60;;
10465;SDS011;5280;42.600;23.556;2023-03-01T01:21:17;0.53;;;0.53;;
10465;SDS011;5280;42.600;23.556;2023-03-01T01:23:48;0.77;;;0.77;;
10465;SDS011;5280;42.600;23.556;2023-03-01T01:26:17;0.70;;;0.70;;
10465;SDS011;5280;42.600;23.556;2023-03-01T01:28:45;0.53;;;0.53;;
10465;SDS011;5280;42.600;23.556;2023-03-01T01:31:14;0.73;;;0.73;;
10465;SDS011;5280;42.600;23.556;2023-03-01T01:33:43;0.70;;;0.70;;
10465;SDS011;5280;42.600;23.556;2023-03-01T01:36:11;0.80;;;0.80;;
10465;SDS011;5280;42.600;23.556;2023-03-01T01:38:38;0.70;;;0.70;;
10465;SDS011;5280;42.600;23.556;2023-03-01T01:41:07;1.00;;;1.00;;
10465;SDS011;5280;42.600;23.556;2023-03-01T01:43:39;0.93;;;0.93;;
10465;SDS011;5280;42.600;23.556;2023-03-01T01:46:13;0.80;;;0.80;;
10465;SDS011;5280;42.600;23.556;2023-03-01T01:48:49;0.70;;;0.70;;
10465;SDS011;5280;42.600;23.556;2023-03-01T01:51:21;0.90;;;0.90;;
10465;SDS011;5280;42.600;23.556;2023-03-01T01:53:53;0.80;;;0.80;;
10465;SDS011;5280;42.600;23.556;2023-03-01T01:56:24;1.10;;;1.10;;
10465;SDS011;5280;42.600;23.556;2023-03-01T01:58:54;1.43;;;1.00;;
10465;SDS011;5280;42.600;23.556;2023-03-01T02:01:22;1.30;;;1.20;;
10465;SDS011;5280;42.600;23.556;2023-03-01T02:03:50;1.20;;;1.10;;
10465;SDS011;5280;42.600;23.556;2023-03-01T02:06:19;1.30;;;1.30;;
10465;SDS011;5280;42.600;23.556;2023-03-01T02:08:54;1.50;;;1.50;;
10465;SDS011;5280;42.600;23.556;2023-03-01T02:11:26;2.10;;;2.00;;
10465;SDS011;5280;42.600;23.556;2023-03-01T02:13:56;2.20;;;2.10;;
10465;SDS011;5280;42.600;23.556;2023-03-01T02:16:23;2.90;;;2.70;;
10465;SDS011;5280;42.600;23.556;2023-03-01T02:18:53;2.63;;;2.43;;
10465;SDS011;5280;42.600;23.556;2023-03-01T02:21:25;2.60;;;2.40;;
10465;SDS011;5280;42.600;23.556;2023-03-01T02:24:05;2.10;;;2.00;;
10465;SDS011;5280;42.600;23.556;2023-03-01T02:26:45;2.40;;;2.20;;
10465;SDS011;5280;42.600;23.556;2023-03-01T02:29:16;2.30;;;2.13;;
10465;SDS011;5280;42.600;23.556;2023-03-01T02:31:43;3.07;;;2.20;;
10465;SDS011;5280;42.600;23.556;2023-03-01T02:34:11;2.50;;;2.30;;
10465;SDS011;5280;42.600;23.556;2023-03-01T02:36:42;3.00;;;2.80;;
10465;SDS011;5280;42.600;23.556;2023-03-01T02:39:12;3.00;;;2.80;;
10465;SDS011;5280;42.600;23.556;2023-03-01T02:41:44;3.50;;;3.20;;
10465;SDS011;5280;42.600;23.556;2023-03-01T02:44:13;3.77;;;3.47;;
10465;SDS011;5280;42.600;23.556;2023-03-01T02:46:46;3.60;;;3.30;;
10465;SDS011;5280;42.600;23.556;2023-03-01T02:49:22;3.53;;;3.23;;
10465;SDS011;5280;42.600;23.556;2023-03-01T02:51:56;2.70;;;2.50;;
10465;SDS011;5280;42.600;23.556;2023-03-01T02:54:32;2.37;;;1.90;;
10465;SDS011;5280;42.600;23.556;2023-03-01T02:57:05;1.90;;;1.80;;
10465;SDS011;5280;42.600;23.556;2023-03-01T02:59:33;1.60;;;1.50;;
10465;SDS011;5280;42.600;23.556;2023-03-01T03:02:05;1.53;;;1.47;;
10465;SDS011;5280;42.600;23.556;2023-03-01T03:04:33;1.50;;;1.40;;
10465;SDS011;5280;42.600;23.556;2023-03-01T03:07:00;1.50;;;1.40;;
10465;SDS011;5280;42.600;23.556;2023-03-01T03:09:27;1.67;;;1.57;;
10465;SDS011;5280;42.600;23.556;2023-03-01T03:11:54;1.50;;;1.40;;
10465;SDS011;5280;42.600;23.556;2023-03-01T03:14:21;1.37;;;1.27;;
10465;SDS011;5280;42.600;23.556;2023-03-01T03:16:49;1.07;;;1.07;;
10465;SDS011;5280;42.600;23.556;2023-03-01T03:19:20;1.00;;;1.00;;
10465;SDS011;5280;42.600;23.556;2023-03-01T03:21:47;1.30;;;1.23;;
10465;SDS011;5280;42.600;23.556;2023-03-01T03:24:14;1.60;;;1.50;;
10465;SDS011;5280;42.600;23.556;2023-03-01T03:26:42;1.43;;;1.40;;
10465;SDS011;5280;42.600;23.556;2023-03-01T03:29:09;1.70;;;1.60;;
10465;SDS011;5280;42.600;23.556;2023-03-01T03:31:36;1.13;;;1.10;;
10465;SDS011;5280;42.600;23.556;2023-03-01T03:34:03;1.20;;;1.20;;
10465;SDS011;5280;42.600;23.556;2023-03-01T03:36:31;1.20;;;1.20;;
10465;SDS011;5280;42.600;23.556;2023-03-01T03:38:58;1.50;;;1.40;;
10465;SDS011;5280;42.600;23.556;2023-03-01T03:41:25;1.30;;;1.20;;
10465;SDS011;5280;42.600;23.556;2023-03-01T03:43:52;1.47;;;1.37;;
10465;SDS011;5280;42.600;23.556;2023-03-01T03:46:19;1.90;;;1.47;;
10465;SDS011;5280;42.600;23.556;2023-03-01T03:48:46;1.50;;;1.40;;
10465;SDS011;5280;42.600;23.556;2023-03-01T03:51:15;1.40;;;1.30;;
10465;SDS011;5280;42.600;23.556;2023-03-01T03:53:45;1.50;;;1.40;;
10465;SDS011;5280;42.600;23.556;2023-03-01T03:56:12;1.90;;;1.43;;
10465;SDS011;5280;42.600;23.556;2023-03-01T03:58:39;1.10;;;1.10;;
10465;SDS011;5280;42.600;23.556;2023-03-01T04:01:06;1.40;;;1.30;;
10465;SDS011;5280;42.600;23.556;2023-03-01T04:03:33;1.27;;;1.20;;
10465;SDS011;5280;42.600;23.556;2023-03-01T04:06:03;1.77;;;1.20;;
10465;SDS011;5280;42.600;23.556;2023-03-01T04:08:31;1.63;;;1.53;;
10465;SDS011;5280;42.600;23.556;2023-03-01T04:11:00;1.63;;;1.30;;
10465;SDS011;5280;42.600;23.556;2023-03-01T04:13:50;1.60;;;0.90;;
10465;SDS011;5280;42.600;23.556;2023-03-01T04:16:18;0.83;;;0.83;;
10465;SDS011;5280;42.600;23.556;2023-03-01T04:18:46;1.07;;;0.90;;
10465;SDS011;5280;42.600;23.556;2023-03-01T04:21:13;0.83;;;0.83;;
10465;SDS011;5280;42.600;23.556;2023-03-01T04:23:40;0.70;;;0.70;;
10465;SDS011;5280;42.600;23.556;2023-03-01T04:26:08;0.93;;;0.93;;
10465;SDS011;5280;42.600;23.556;2023-03-01T04:28:35;0.67;;;0.67;;
10465;SDS011;5280;42.600;23.556;2023-03-01T04:31:06;0.60;;;0.60;;
10465;SDS011;5280;42.600;23.556;2023-03-01T04:33:39;0.70;;;0.70;;
10465;SDS011;5280;42.600;23.556;2023-03-01T04:36:07;0.90;;;0.90;;
10465;SDS011;5280;42.600;23.556;2023-03-01T04:38:35;0.80;;;0.80;;
10465;SDS011;5280;42.600;23.556;2023-03-01T04:41:03;0.60;;;0.60;;
10465;SDS011;5280;42.600;23.556;2023-03-01T04:43:32;0.70;;;0.70;;
10465;SDS011;5280;42.600;23.556;2023-03-01T04:46:00;0.70;;;0.70;;
10465;SDS011;5280;42.600;23.556;2023-03-01T04:48:28;0.70;;;0.70;;
10465;SDS011;5280;42.600;23.556;2023-03-01T04:50:56;0.60;;;0.60;;
10465;SDS011;5280;42.600;23.556;2023-03-01T04:53:23;1.10;;;0.77;;
10465;SDS011;5280;42.600;23.556;2023-03-01T04:55:50;0.70;;;0.70;;
10465;SDS011;5280;42.600;23.556;2023-03-01T04:58:17;0.70;;;0.70;;
10465;SDS011;5280;42.600;23.556;2023-03-01T05:00:45;1.00;;;0.67;;
10465;SDS011;5280;42.600;23.556;2023-03-01T05:03:12;0.70;;;0.70;;
10465;SDS011;5280;42.600;23.556;2023-03-01T05:05:44;0.80;;;0.80;;
10465;SDS011;5280;42.600;23.556;2023-03-01T05:08:12;0.70;;;0.70;;
10465;SDS011;5280;42.600;23.556;2023-03-01T05:10:43;0.67;;;0.67;;
10465;SDS011;5280;42.600;23.556;2023-03-01T05:13:11;0.63;;;0.63;;
10465;SDS011;5280;42.600;23.556;2023-03-01T05:15:47;1.00;;;1.00;;
10465;SDS011;5280;42.600;23.556;2023-03-01T05:18:15;0.73;;;0.73;;
10465;SDS011;5280;42.600;23.556;2023-03-01T05:20:42;0.83;;;0.83;;
10465;SDS011;5280;42.600;23.556;2023-03-01T05:23:09;1.00;;;1.00;;
10465;SDS011;5280;42.600;23.556;2023-03-01T05:25:36;0.93;;;0.93;;
10465;SDS011;5280;42.600;23.556;2023-03-01T05:28:05;1.00;;;1.00;;
10465;SDS011;5280;42.600;23.556;2023-03-01T05:30:37;0.97;;;0.97;;
10465;SDS011;5280;42.600;23.556;2023-03-01T05:33:07;1.10;;;1.10;;
10465;SDS011;5280;42.600;23.556;2023-03-01T05:35:38;0.90;;;0.90;;
10465;SDS011;5280;42.600;23.556;2023-03-01T05:38:06;1.10;;;1.10;;
10465;SDS011;5280;42.600;23.556;2023-03-01T05:40:33;1.23;;;1.13;;
10465;SDS011;5280;42.600;23.556;2023-03-01T05:43:00;1.50;;;1.40;;
10465;SDS011;5280;42.600;23.556;2023-03-01T05:45:30;1.10;;;1.10;;
10465;SDS011;5280;42.600;23.556;2023-03-01T05:47:58;1.50;;;1.13;;
10465;SDS011;5280;42.600;23.556;2023-03-01T05:50:28;1.53;;;1.40;;
10465;SDS011;5280;42.600;23.556;2023-03-01T05:52:57;1.57;;;1.30;;
10465;SDS011;5280;42.600;23.556;2023-03-01T05:55:25;2.00;;;1.40;;
10465;SDS011;5280;42.600;23.556;2023-03-01T05:57:52;1.70;;;1.60;;
10465;SDS011;5280;42.600;23.556;2023-03-01T06:00:20;1.50;;;1.40;;
10465;SDS011;5280;42.600;23.556;2023-03-01T06:02:48;2.30;;;1.40;;
10465;SDS011;5280;42.600;23.556;2023-03-01T06:05:17;1.60;;;1.50;;
10465;SDS011;5280;42.600;23.556;2023-03-01T06:07:45;1.70;;;1.60;;
10465;SDS011;5280;42.600;23.556;2023-03-01T06:10:12;2.77;;;2.33;;
10465;SDS011;5280;42.600;23.556;2023-03-01T06:12:41;2.40;;;2.20;;
10465;SDS011;5280;42.600;23.556;2023-03-01T06:15:09;3.30;;;2.47;;
10465;SDS011;5280;42.600;23.556;2023-03-01T06:17:41;2.40;;;2.20;;
10465;SDS011;5280;42.600;23.556;2023-03-01T06:20:10;1.80;;;1.63;;
10465;SDS011;5280;42.600;23.556;2023-03-01T06:22:39;2.20;;;2.00;;
10465;SDS011;5280;42.600;23.556;2023-03-01T06:25:08;2.17;;;1.97;;
10465;SDS011;5280;42.600;23.556;2023-03-01T06:27:37;3.80;;;3.50;;
10465;SDS011;5280;42.600;23.556;2023-03-01T06:30:05;3.37;;;3.07;;
10465;SDS011;5280;42.600;23.556;2023-03-01T06:32:33;3.03;;;2.83;;
10465;SDS011;5280;42.600;23.556;2023-03-01T06:35:00;1.50;;;1.40;;
10465;SDS011;5280;42.600;23.556;2023-03-01T06:37:26;1.03;;;1.03;;
10465;SDS011;5280;42.600;23.556;2023-03-01T06:39:53;1.07;;;1.07;;
10465;SDS011;5280;42.600;23.556;2023-03-01T06:42:21;0.60;;;0.60;;
10465;SDS011;5280;42.600;23.556;2023-03-01T06:44:48;0.53;;;0.53;;
10465;SDS011;5280;42.600;23.556;2023-03-01T06:47:15;0.80;;;0.80;;
10465;SDS011;5280;42.600;23.556;2023-03-01T06:49:42;0.87;;;0.50;;
10465;SDS011;5280;42.600;23.556;2023-03-01T06:52:09;0.47;;;0.47;;
10465;SDS011;5280;42.600;23.556;2023-03-01T06:54:35;0.47;;;0.47;;
10465;SDS011;5280;42.600;23.556;2023-03-01T06:57:02;0.50;;;0.50;;
10465;SDS011;5280;42.600;23.556;2023-03-01T06:59:31;0.40;;;0.40;;
10465;SDS011;5280;42.600;23.556;2023-03-01T07:01:57;0.57;;;0.50;;
10465;SDS011;5280;42.600;23.556;2023-03-01T07:04:24;1.30;;;0.80;;
10465;SDS011;5280;42.600;23.556;2023-03-01T07:06:53;0.80;;;0.80;;
10465;SDS011;5280;42.600;23.556;2023-03-01T07:09:20;0.70;;;0.70;;
10465;SDS011;5280;42.600;23.556;2023-03-01T07:11:47;0.70;;;0.70;;
10465;SDS011;5280;42.600;23.556;2023-03-01T07:14:14;0.50;;;0.50;;
10465;SDS011;5280;42.600;23.556;2023-03-01T07:16:42;0.47;;;0.47;;
10465;SDS011;5280;42.600;23.556;2023-03-01T07:19:09;0.67;;;0.67;;
10465;SDS011;5280;42.600;23.556;2023-03-01T07:21:36;0.40;;;0.40;;
10465;SDS011;5280;42.600;23.556;2023-03-01T07:24:04;0.40;;;0.40;;
10465;SDS011;5280;42.600;23.556;2023-03-01T07:26:32;0.40;;;0.40;;
10465;SDS011;5280;42.600;23.556;2023-03-01T07:28:59;0.60;;;0.60;;
10465;SDS011;5280;42.600;23.556;2023-03-01T07:31:26;0.50;;;0.50;;
10465;SDS011;5280;42.600;23.556;2023-03-01T07:33:55;0.50;;;0.50;;
10465;SDS011;5280;42.600;23.556;2023-03-01T07:36:22;0.60;;;0.60;;
10465;SDS011;5280;42.600;23.556;2023-03-01T07:38:49;0.70;;;0.70;;
10465;SDS011;5280;42.600;23.556;2023-03-01T07:41:16;0.60;;;0.60;;
10465;SDS011;5280;42.600;23.556;2023-03-01T07:43:43;0.90;;;0.90;;
10465;SDS011;5280;42.600;23.556;2023-03-01T07:46:10;0.73;;;0.73;;
10465;SDS011;5280;42.600;23.556;2023-03-01T07:48:37;0.80;;;0.80;;
10465;SDS011;5280;42.600;23.556;2023-03-01T07:51:06;0.70;;;0.70;;
10465;SDS011;5280;42.600;23.556;2023-03-01T07:53:34;0.97;;;0.97;;
10465;SDS011;5280;42.600;23.556;2023-03-01T07:56:03;1.17;;;0.90;;
10465;SDS011;5280;42.600;23.556;2023-03-01T07:58:33;0.80;;;0.80;;
10465;SDS011;5280;42.600;23.556;2023-03-01T08:01:01;1.10;;;1.10;;
10465;SDS011;5280;42.600;23.556;2023-03-01T08:03:29;1.10;;;1.10;;
10465;SDS011;5280;42.600;23.556;2023-03-01T08:05:55;1.20;;;1.20;;
10465;SDS011;5280;42.600;23.556;2023-03-01T08:08:29;1.57;;;1.47;;
10465;SDS011;5280;42.600;23.556;2023-03-01T08:10:59;1.77;;;1.60;;
10465;SDS011;5280;42.600;23.556;2023-03-01T08:13:28;1.63;;;1.30;;
10465;SDS011;5280;42.600;23.556;2023-03-01T08:15:59;1.20;;;1.20;;
10465;SDS011;5280;42.600;23.556;2023-03-01T08:18:30;1.30;;;1.30;;
10465;SDS011;5280;42.600;23.556;2023-03-01T08:21:00;1.20;;;1.20;;
10465;SDS011;5280;42.600;23.556;2023-03-01T08:23:32;1.23;;;1.23;;
10465;SDS011;5280;42.600;23.556;2023-03-01T08:26:06;1.13;;;1.13;;
10465;SDS011;5280;42.600;23.556;2023-03-01T08:28:34;1.00;;;1.00;;
10465;SDS011;5280;42.600;23.556;2023-03-01T08:31:01;1.40;;;1.30;;
10465;SDS011;5280;42.600;23.556;2023-03-01T08:33:28;1.00;;;1.00;;
10465;SDS011;5280;42.600;23.556;2023-03-01T08:36:01;1.00;;;1.00;;
10465;SDS011;5280;42.600;23.556;2023-03-01T08:38:29;1.30;;;1.20;;
10465;SDS011;5280;42.600;23.556;2023-03-01T08:41:00;1.17;;;1.17;;
10465;SDS011;5280;42.600;23.556;2023-03-01T08:43:27;0.80;;;0.80;;
10465;SDS011;5280;42.600;23.556;2023-03-01T08:45:54;0.97;;;0.97;;
10465;SDS011;5280;42.600;23.556;2023-03-01T08:48:21;0.90;;;0.90;;
10465;SDS011;5280;42.600;23.556;2023-03-01T08:50:48;0.90;;;0.90;;
10465;SDS011;5280;42.600;23.556;2023-03-01T08:53:15;0.93;;;0.93;;
10465;SDS011;5280;42.600;23.556;2023-03-01T08:55:42;0.80;;;0.80;;
10465;SDS011;5280;42.600;23.556;2023-03-01T08:58:10;0.83;;;0.83;;
10465;SDS011;5280;42.600;23.556;2023-03-01T09:00:37;0.80;;;0.80;;
10465;SDS011;5280;42.600;23.556;2023-03-01T09:03:05;0.90;;;0.90;;
10465;SDS011;5280;42.600;23.556;2023-03-01T09:05:35;0.60;;;0.60;;
10465;SDS011;5280;42.600;23.556;2023-03-01T09:08:02;0.70;;;0.70;;
10465;SDS011;5280;42.600;23.556;2023-03-01T09:10:29;0.80;;;0.80;;
10465;SDS011;5280;42.600;23.556;2023-03-01T09:12:56;0.70;;;0.70;;
10465;SDS011;5280;42.600;23.556;2023-03-01T09:15:24;0.60;;;0.60;;
10465;SDS011;5280;42.600;23.556;2023-03-01T09:17:51;0.53;;;0.53;;
10465;SDS011;5280;42.600;23.556;2023-03-01T09:20:18;1.07;;;0.80;;
10465;SDS011;5280;42.600;23.556;2023-03-01T09:22:45;0.70;;;0.70;;
10465;SDS011;5280;42.600;23.556;2023-03-01T09:25:12;0.77;;;0.77;;
10465;SDS011;5280;42.600;23.556;2023-03-01T09:27:39;1.17;;;0.63;;
10465;SDS011;5280;42.600;23.556;2023-03-01T09:30:07;0.83;;;0.80;;
10465;SDS011;5280;42.600;23.556;2023-03-01T09:32:37;0.70;;;0.70;;
10465;SDS011;5280;42.600;23.556;2023-03-01T09:35:07;0.80;;;0.80;;
10465;SDS011;5280;42.600;23.556;2023-03-01T09:37:35;0.80;;;0.80;;
10465;SDS011;5280;42.600;23.556;2023-03-01T09:40:06;0.80;;;0.80;;
10465;SDS011;5280;42.600;23.556;2023-03-01T09:42:45;0.90;;;0.90;;
10465;SDS011;5280;42.600;23.556;2023-03-01T09:45:18;0.83;;;0.83;;
10465;SDS011;5280;42.600;23.556;2023-03-01T09:47:55;2.33;;;0.80;;
10465;SDS011;5280;42.600;23.556;2023-03-01T09:50:23;0.90;;;0.70;;
10465;SDS011;5280;42.600;23.556;2023-03-01T09:52:54;1.07;;;0.83;;
10465;SDS011;5280;42.600;23.556;2023-03-01T09:55:31;0.70;;;0.70;;
10465;SDS011;5280;42.600;23.556;2023-03-01T09:58:06;0.60;;;0.60;;
10465;SDS011;5280;42.600;23.556;2023-03-01T10:00:56;0.57;;;0.57;;
10465;SDS011;5280;42.600;23.556;2023-03-01T10:03:28;1.70;;;0.47;;
10465;SDS011;5280;42.600;23.556;2023-03-01T10:06:02;0.47;;;0.47;;
10465;SDS011;5280;42.600;23.556;2023-03-01T10:08:36;0.60;;;0.60;;
10465;SDS011;5280;42.600;23.556;2023-03-01T10:11:14;0.80;;;0.77;;
10465;SDS011;5280;42.600;23.556;2023-03-01T10:13:47;0.50;;;0.50;;
10465;SDS011;5280;42.600;23.556;2023-03-01T10:16:21;0.60;;;0.60;;
10465;SDS011;5280;42.600;23.556;2023-03-01T10:18:55;0.73;;;0.70;;
10465;SDS011;5280;42.600;23.556;2023-03-01T10:21:25;0.40;;;0.40;;
10465;SDS011;5280;42.600;23.556;2023-03-01T10:24:04;0.70;;;0.70;;
10465;SDS011;5280;42.600;23.556;2023-03-01T10:26:40;0.70;;;0.70;;
10465;SDS011;5280;42.600;23.556;2023-03-01T10:29:13;0.70;;;0.70;;
10465;SDS011;5280;42.600;23.556;2023-03-01T10:31:41;0.70;;;0.70;;
10465;SDS011;5280;42.600;23.556;2023-03-01T10:34:13;1.20;;;0.90;;
10465;SDS011;5280;42.600;23.556;2023-03-01T10:36:43;1.10;;;1.10;;
10465;SDS011;5280;42.600;23.556;2023-03-01T10:39:12;1.00;;;1.00;;
10465;SDS011;5280;42.600;23.556;2023-03-01T10:41:52;0.70;;;0.70;;
10465;SDS011;5280;42.600;23.556;2023-03-01T10:44:35;0.70;;;0.70;;
10465;SDS011;5280;42.600;23.556;2023-03-01T10:47:12;0.70;;;0.70;;
10465;SDS011;5280;42.600;23.556;2023-03-01T10:52:55;0.67;;;0.67;;
10465;SDS011;5280;42.600;23.556;2023-03-01T10:55:24;0.83;;;0.77;;
10465;SDS011;5280;42.600;23.556;2023-03-01T10:58:06;0.80;;;0.80;;
10465;SDS011;5280;42.600;23.556;2023-03-01T11:00:47;0.70;;;0.70;;
10465;SDS011;5280;42.600;23.556;2023-03-01T11:03:18;0.80;;;0.80;;
10465;SDS011;5280;42.600;23.556;2023-03-01T11:08:49;0.70;;;0.70;;
10465;SDS011;5280;42.600;23.556;2023-03-01T11:11:25;1.07;;;0.97;;
10465;SDS011;5280;42.600;23.556;2023-03-01T11:13:58;1.00;;;1.00;;
10465;SDS011;5280;42.600;23.556;2023-03-01T11:16:27;1.10;;;1.10;;
10465;SDS011;5280;42.600;23.556;2023-03-01T11:18:58;1.20;;;1.20;;
10465;SDS011;5280;42.600;23.556;2023-03-01T11:21:28;1.23;;;1.23;;
10465;SDS011;5280;42.600;23.556;2023-03-01T11:23:58;1.50;;;1.27;;
10465;SDS011;5280;42.600;23.556;2023-03-01T11:26:29;1.23;;;1.20;;
10465;SDS011;5280;42.600;23.556;2023-03-01T11:29:03;1.27;;;1.27;;
10465;SDS011;5280;42.600;23.556;2023-03-01T11:31:37;1.60;;;1.50;;
10465;SDS011;5280;42.600;23.556;2023-03-01T11:34:08;1.47;;;0.93;;
10465;SDS011;5280;42.600;23.556;2023-03-01T11:36:42;1.60;;;1.40;;
10465;SDS011;5280;42.600;23.556;2023-03-01T11:39:17;1.60;;;1.50;;
10465;SDS011;5280;42.600;23.556;2023-03-01T11:41:52;1.10;;;1.10;;
10465;SDS011;5280;42.600;23.556;2023-03-01T11:44:28;1.17;;;1.17;;
10465;SDS011;5280;42.600;23.556;2023-03-01T11:50:01;1.37;;;1.37;;
10465;SDS011;5280;42.600;23.556;2023-03-01T11:52:43;0.93;;;0.93;;
10465;SDS011;5280;42.600;23.556;2023-03-01T11:55:24;1.20;;;1.20;;
10465;SDS011;5280;42.600;23.556;2023-03-01T11:58:14;1.00;;;1.00;;
10465;SDS011;5280;42.600;23.556;2023-03-01T12:01:00;1.27;;;1.27;;
10465;SDS011;5280;42.600;23.556;2023-03-01T12:03:46;1.77;;;1.67;;
10465;SDS011;5280;42.600;23.556;2023-03-01T12:06:36;1.70;;;1.60;;
10465;SDS011;5280;42.600;23.556;2023-03-01T12:09:17;1.60;;;1.50;;
10465;SDS011;5280;42.600;23.556;2023-03-01T12:11:55;1.33;;;1.27;;
10465;SDS011;5280;42.600;23.556;2023-03-01T12:14:47;1.50;;;1.40;;
10465;SDS011;5280;42.600;23.556;2023-03-01T12:17:34;2.47;;;1.80;;
10465;SDS011;5280;42.600;23.556;2023-03-01T12:20:21;1.60;;;1.50;;
10465;SDS011;5280;42.600;23.556;2023-03-01T12:23:04;1.67;;;1.57;;
10465;SDS011;5280;42.600;23.556;2023-03-01T12:25:45;1.80;;;1.70;;
10465;SDS011;5280;42.600;23.556;2023-03-01T12:28:21;2.17;;;1.73;;
10465;SDS011;5280;42.600;23.556;2023-03-01T12:31:13;2.00;;;1.80;;
10465;SDS011;5280;42.600;23.556;2023-03-01T12:34:01;1.57;;;1.47;;
10465;SDS011;5280;42.600;23.556;2023-03-01T12:36:39;2.03;;;1.93;;
10465;SDS011;5280;42.600;23.556;2023-03-01T12:39:21;1.60;;;1.50;;
10465;SDS011;5280;42.600;23.556;2023-03-01T12:42:03;1.70;;;1.60;;
10465;SDS011;5280;42.600;23.556;2023-03-01T12:47:46;2.27;;;1.60;;
10465;SDS011;5280;42.600;23.556;2023-03-01T12:50:25;2.43;;;1.50;;
10465;SDS011;5280;42.600;23.556;2023-03-01T12:52:59;1.40;;;1.30;;
10465;SDS011;5280;42.600;23.556;2023-03-01T12:55:28;2.00;;;1.43;;
10465;SDS011;5280;42.600;23.556;2023-03-01T12:57:59;1.43;;;1.33;;
10465;SDS011;5280;42.600;23.556;2023-03-01T13:00:31;2.40;;;1.60;;
10465;SDS011;5280;42.600;23.556;2023-03-01T13:03:05;1.73;;;1.53;;
10465;SDS011;5280;42.600;23.556;2023-03-01T13:05:39;1.73;;;1.57;;
10465;SDS011;5280;42.600;23.556;2023-03-01T13:08:15;1.93;;;1.30;;
10465;SDS011;5280;42.600;23.556;2023-03-01T13:10:49;2.90;;;1.40;;
10465;SDS011;5280;42.600;23.556;2023-03-01T13:13:21;2.30;;;1.40;;
10465;SDS011;5280;42.600;23.556;2023-03-01T13:15:48;1.93;;;1.30;;
10465;SDS011;5280;42.600;23.556;2023-03-01T13:18:30;1.90;;;1.40;;
10465;SDS011;5280;42.600;23.556;2023-03-01T13:20:59;2.03;;;1.43;;
10465;SDS011;5280;42.600;23.556;2023-03-01T13:23:29;3.07;;;1.30;;
10465;SDS011;5280;42.600;23.556;2023-03-01T13:26:09;1.13;;;1.10;;
10465;SDS011;5280;42.600;23.556;2023-03-01T13:28:45;1.63;;;1.50;;
10465;SDS011;5280;42.600;23.556;2023-03-01T13:34:40;1.87;;;1.43;;
10465;SDS011;5280;42.600;23.556;2023-03-01T13:37:09;2.07;;;1.70;;
10465;SDS011;5280;42.600;23.556;2023-03-01T13:39:39;1.50;;;1.40;;
10465;SDS011;5280;42.600;23.556;2023-03-01T13:48:04;1.30;;;1.20;;
10465;SDS011;5280;42.600;23.556;2023-03-01T13:50:38;1.90;;;1.40;;
10465;SDS011;5280;42.600;23.556;2023-03-01T13:53:13;1.60;;;1.20;;
10465;SDS011;5280;42.600;23.556;2023-03-01T13:55:44;1.63;;;1.23;;
10465;SDS011;5280;42.600;23.556;2023-03-01T13:58:21;2.30;;;1.50;;
10465;SDS011;5280;42.600;23.556;2023-03-01T14:00:56;1.27;;;1.17;;
10465;SDS011;5280;42.600;23.556;2023-03-01T14:03:25;1.33;;;1.20;;
10465;SDS011;5280;42.600;23.556;2023-03-01T14:06:00;2.23;;;1.50;;
10465;SDS011;5280;42.600;23.556;2023-03-01T14:08:31;2.70;;;1.30;;
10465;SDS011;5280;42.600;23.556;2023-03-01T14:11:03;2.00;;;1.60;;
10465;SDS011;5280;42.600;23.556;2023-03-01T14:14:01;2.70;;;1.70;;
10465;SDS011;5280;42.600;23.556;2023-03-01T14:16:39;2.10;;;1.40;;
10465;SDS011;5280;42.600;23.556;2023-03-01T14:19:16;3.10;;;1.90;;
10465;SDS011;5280;42.600;23.556;2023-03-01T14:21:46;4.53;;;1.30;;
10465;SDS011;5280;42.600;23.556;2023-03-01T14:24:16;2.20;;;1.57;;
10465;SDS011;5280;42.600;23.556;2023-03-01T14:26:46;2.20;;;1.47;;
10465;SDS011;5280;42.600;23.556;2023-03-01T14:29:24;2.03;;;1.40;;
10465;SDS011;5280;42.600;23.556;2023-03-01T14:31:55;1.43;;;1.23;;
10465;SDS011;5280;42.600;23.556;2023-03-01T14:34:22;1.70;;;1.50;;
10465;SDS011;5280;42.600;23.556;2023-03-01T14:36:50;1.93;;;1.80;;
10465;SDS011;5280;42.600;23.556;2023-03-01T14:39:18;2.30;;;1.60;;
10465;SDS011;5280;42.600;23.556;2023-03-01T14:41:50;1.53;;;1.40;;
10465;SDS011;5280;42.600;23.556;2023-03-01T14:44:19;2.60;;;1.57;;
10465;SDS011;5280;42.600;23.556;2023-03-01T14:46:52;1.63;;;1.37;;
10465;SDS011;5280;42.600;23.556;2023-03-01T14:49:23;1.63;;;1.53;;
10465;SDS011;5280;42.600;23.556;2023-03-01T14:51:53;1.60;;;1.50;;
10465;SDS011;5280;42.600;23.556;2023-03-01T14:54:24;1.70;;;1.33;;
10465;SDS011;5280;42.600;23.556;2023-03-01T14:56:52;1.80;;;1.60;;
10465;SDS011;5280;42.600;23.556;2023-03-01T14:59:25;2.10;;;1.27;;
10465;SDS011;5280;42.600;23.556;2023-03-01T15:01:54;1.30;;;1.20;;
10465;SDS011;5280;42.600;23.556;2023-03-01T15:04:23;1.30;;;1.20;;
10465;SDS011;5280;42.600;23.556;2023-03-01T15:06:52;2.50;;;1.40;;
10465;SDS011;5280;42.600;23.556;2023-03-01T15:09:21;1.70;;;1.20;;
10465;SDS011;5280;42.600;23.556;2023-03-01T15:11:49;2.87;;;1.30;;
10465;SDS011;5280;42.600;23.556;2023-03-01T15:14:26;1.60;;;1.50;;
10465;SDS011;5280;42.600;23.556;2023-03-01T15:16:56;1.83;;;1.30;;
10465;SDS011;5280;42.600;23.556;2023-03-01T15:19:23;2.47;;;1.60;;
10465;SDS011;5280;42.600;23.556;2023-03-01T15:21:54;1.60;;;1.50;;
10465;SDS011;5280;42.600;23.556;2023-03-01T15:24:23;2.37;;;1.50;;
10465;SDS011;5280;42.600;23.556;2023-03-01T15:26:53;1.43;;;1.07;;
10465;SDS011;5280;42.600;23.556;2023-03-01T15:29:23;2.57;;;1.20;;
10465;SDS011;5280;42.600;23.556;2023-03-01T15:31:57;1.83;;;1.33;;